sensor_id;sensor_type;location;lat;lon;timestamp;P1;durP1;ratioP1;P2;durP2;ratioP2
16994;SDS011;8614;48.522;9.206;2023-04-19T00:01:18;13.07;;;11.10;;
16994;SDS011;8614;48.522;9.206;2023-04-19T00:03:47;14.43;;;13.03;;
16994;SDS011;8614;48.522;9.206;2023-04-19T00:06:14;15.90;;;14.50;;
16994;SDS011;8614;48.522;9.206;2023-04-19T00:08:42;11.33;;;9.87;;
16994;SDS011;8614;48.522;9.206;2023-04-19T00:11:09;17.87;;;16.17;;
16994;SDS011;8614;48.522;9.206;2023-04-19T00:13:36;16.90;;;15.30;;
16994;SDS011;8614;48.522;9.206;2023-04-19T00:16:03;12.97;;;11.67;;
16994;SDS011;8614;48.522;9.206;2023-04-19T00:18:31;13.07;;;9.97;;
16994;SDS011;8614;48.522;9.206;2023-04-19T00:20:58;13.20;;;11.30;;
16994;SDS011;8614;48.522;9.206;2023-04-19T00:23:24;13.77;;;11.80;;
16994;SDS011;8614;48.522;9.206;2023-04-19T00:25:52;14.40;;;11.40;;
16994;SDS011;8614;48.522;9.206;2023-04-19T00:28:19;19.70;;;17.90;;
16994;SDS011;8614;48.522;9.206;2023-04-19T00:30:47;18.23;;;16.63;;
16994;SDS011;8614;48.522;9.206;2023-04-19T00:33:14;18.40;;;16.80;;
16994;SDS011;8614;48.522;9.206;2023-04-19T00:35:40;18.17;;;16.47;;
16994;SDS011;8614;48.522;9.206;2023-04-19T00:38:07;17.67;;;16.00;;
16994;SDS011;8614;48.522;9.206;2023-04-19T00:40:34;17.90;;;16.20;;
16994;SDS011;8614;48.522;9.206;2023-04-19T00:43:04;19.67;;;17.77;;
16994;SDS011;8614;48.522;9.206;2023-04-19T00:45:32;20.33;;;16.37;;
16994;SDS011;8614;48.522;9.206;2023-04-19T00:48:00;18.87;;;16.97;;
16994;SDS011;8614;48.522;9.206;2023-04-19T00:50:27;18.67;;;16.93;;
16994;SDS011;8614;48.522;9.206;2023-04-19T00:52:55;18.63;;;16.83;;
16994;SDS011;8614;48.522;9.206;2023-04-19T00:55:23;22.33;;;20.33;;
16994;SDS011;8614;48.522;9.206;2023-04-19T00:57:50;17.73;;;16.13;;
16994;SDS011;8614;48.522;9.206;2023-04-19T01:00:18;17.67;;;16.07;;
16994;SDS011;8614;48.522;9.206;2023-04-19T01:02:46;19.97;;;18.07;;
16994;SDS011;8614;48.522;9.206;2023-04-19T01:05:13;20.60;;;18.67;;
16994;SDS011;8614;48.522;9.206;2023-04-19T01:07:40;20.93;;;18.80;;
16994;SDS011;8614;48.522;9.206;2023-04-19T01:10:08;19.53;;;17.73;;
16994;SDS011;8614;48.522;9.206;2023-04-19T01:12:35;17.83;;;16.27;;
16994;SDS011;8614;48.522;9.206;2023-04-19T01:15:02;18.40;;;16.60;;
16994;SDS011;8614;48.522;9.206;2023-04-19T01:20:03;18.50;;;16.80;;
16994;SDS011;8614;48.522;9.206;2023-04-19T01:22:33;18.10;;;16.60;;
16994;SDS011;8614;48.522;9.206;2023-04-19T01:25:03;19.00;;;17.20;;
16994;SDS011;8614;48.522;9.206;2023-04-19T01:27:31;18.07;;;16.33;;
16994;SDS011;8614;48.522;9.206;2023-04-19T01:29:58;18.10;;;16.40;;
16994;SDS011;8614;48.522;9.206;2023-04-19T01:32:25;19.27;;;17.47;;
16994;SDS011;8614;48.522;9.206;2023-04-19T01:34:54;20.10;;;18.20;;
16994;SDS011;8614;48.522;9.206;2023-04-19T01:37:21;21.63;;;19.63;;
16994;SDS011;8614;48.522;9.206;2023-04-19T01:39:49;19.20;;;17.40;;
16994;SDS011;8614;48.522;9.206;2023-04-19T01:42:16;21.90;;;19.87;;
16994;SDS011;8614;48.522;9.206;2023-04-19T01:44:43;19.50;;;17.70;;
16994;SDS011;8614;48.522;9.206;2023-04-19T01:47:09;20.57;;;18.53;;
16994;SDS011;8614;48.522;9.206;2023-04-19T01:49:38;17.37;;;15.73;;
16994;SDS011;8614;48.522;9.206;2023-04-19T01:52:05;17.67;;;16.07;;
16994;SDS011;8614;48.522;9.206;2023-04-19T01:54:32;18.00;;;16.37;;
16994;SDS011;8614;48.522;9.206;2023-04-19T01:57:00;18.43;;;16.73;;
16994;SDS011;8614;48.522;9.206;2023-04-19T01:59:27;18.93;;;16.90;;
16994;SDS011;8614;48.522;9.206;2023-04-19T02:01:54;20.03;;;18.20;;
16994;SDS011;8614;48.522;9.206;2023-04-19T02:04:23;19.40;;;17.60;;
16994;SDS011;8614;48.522;9.206;2023-04-19T02:06:49;19.33;;;17.63;;
16994;SDS011;8614;48.522;9.206;2023-04-19T02:09:16;19.20;;;17.50;;
16994;SDS011;8614;48.522;9.206;2023-04-19T02:11:44;19.80;;;17.73;;
16994;SDS011;8614;48.522;9.206;2023-04-19T02:14:12;18.67;;;17.00;;
16994;SDS011;8614;48.522;9.206;2023-04-19T02:16:39;19.13;;;17.33;;
16994;SDS011;8614;48.522;9.206;2023-04-19T02:19:06;21.40;;;19.33;;
16994;SDS011;8614;48.522;9.206;2023-04-19T02:21:33;19.90;;;18.00;;
16994;SDS011;8614;48.522;9.206;2023-04-19T02:24:00;18.90;;;17.10;;
16994;SDS011;8614;48.522;9.206;2023-04-19T02:26:27;20.53;;;18.53;;
16994;SDS011;8614;48.522;9.206;2023-04-19T02:28:54;20.63;;;18.37;;
16994;SDS011;8614;48.522;9.206;2023-04-19T02:31:22;19.93;;;18.13;;
16994;SDS011;8614;48.522;9.206;2023-04-19T02:33:48;20.93;;;18.83;;
16994;SDS011;8614;48.522;9.206;2023-04-19T02:36:15;20.53;;;18.53;;
16994;SDS011;8614;48.522;9.206;2023-04-19T02:38:42;20.50;;;18.53;;
16994;SDS011;8614;48.522;9.206;2023-04-19T02:41:09;21.73;;;19.83;;
16994;SDS011;8614;48.522;9.206;2023-04-19T02:43:37;21.50;;;19.40;;
16994;SDS011;8614;48.522;9.206;2023-04-19T02:46:04;21.60;;;19.50;;
16994;SDS011;8614;48.522;9.206;2023-04-19T02:48:32;23.03;;;20.93;;
16994;SDS011;8614;48.522;9.206;2023-04-19T02:50:59;20.77;;;18.77;;
16994;SDS011;8614;48.522;9.206;2023-04-19T02:53:26;20.53;;;18.73;;
16994;SDS011;8614;48.522;9.206;2023-04-19T02:55:53;20.93;;;18.93;;
16994;SDS011;8614;48.522;9.206;2023-04-19T02:58:20;20.67;;;18.67;;
16994;SDS011;8614;48.522;9.206;2023-04-19T03:00:57;23.20;;;21.07;;
16994;SDS011;8614;48.522;9.206;2023-04-19T03:03:24;21.17;;;19.13;;
16994;SDS011;8614;48.522;9.206;2023-04-19T03:05:53;22.07;;;20.17;;
16994;SDS011;8614;48.522;9.206;2023-04-19T03:08:20;20.57;;;18.67;;
16994;SDS011;8614;48.522;9.206;2023-04-19T03:10:48;22.50;;;20.30;;
16994;SDS011;8614;48.522;9.206;2023-04-19T03:13:14;20.63;;;18.70;;
16994;SDS011;8614;48.522;9.206;2023-04-19T03:15:41;20.27;;;18.50;;
16994;SDS011;8614;48.522;9.206;2023-04-19T03:18:09;22.03;;;19.87;;
16994;SDS011;8614;48.522;9.206;2023-04-19T03:20:39;21.63;;;19.63;;
16994;SDS011;8614;48.522;9.206;2023-04-19T03:23:07;21.30;;;19.37;;
16994;SDS011;8614;48.522;9.206;2023-04-19T03:25:34;21.27;;;19.27;;
16994;SDS011;8614;48.522;9.206;2023-04-19T03:28:34;21.63;;;19.77;;
16994;SDS011;8614;48.522;9.206;2023-04-19T03:31:27;21.43;;;19.63;;
16994;SDS011;8614;48.522;9.206;2023-04-19T03:33:53;24.33;;;22.13;;
16994;SDS011;8614;48.522;9.206;2023-04-19T03:36:26;22.20;;;20.27;;
16994;SDS011;8614;48.522;9.206;2023-04-19T03:38:55;29.83;;;27.33;;
16994;SDS011;8614;48.522;9.206;2023-04-19T03:41:22;30.83;;;28.30;;
16994;SDS011;8614;48.522;9.206;2023-04-19T03:44:11;22.67;;;20.77;;
16994;SDS011;8614;48.522;9.206;2023-04-19T03:46:41;26.27;;;24.07;;
16994;SDS011;8614;48.522;9.206;2023-04-19T03:49:11;24.67;;;22.60;;
16994;SDS011;8614;48.522;9.206;2023-04-19T03:51:40;24.80;;;22.47;;
16994;SDS011;8614;48.522;9.206;2023-04-19T03:54:08;26.80;;;24.60;;
16994;SDS011;8614;48.522;9.206;2023-04-19T03:56:36;28.40;;;25.90;;
16994;SDS011;8614;48.522;9.206;2023-04-19T03:59:03;24.00;;;21.80;;
16994;SDS011;8614;48.522;9.206;2023-04-19T04:01:32;21.23;;;19.53;;
16994;SDS011;8614;48.522;9.206;2023-04-19T04:04:00;26.80;;;24.60;;
16994;SDS011;8614;48.522;9.206;2023-04-19T04:06:27;23.43;;;21.33;;
16994;SDS011;8614;48.522;9.206;2023-04-19T04:08:54;21.03;;;19.23;;
16994;SDS011;8614;48.522;9.206;2023-04-19T04:11:24;25.20;;;22.90;;
16994;SDS011;8614;48.522;9.206;2023-04-19T04:13:52;22.97;;;20.73;;
16994;SDS011;8614;48.522;9.206;2023-04-19T04:16:24;21.30;;;19.27;;
16994;SDS011;8614;48.522;9.206;2023-04-19T04:18:52;23.17;;;20.97;;
16994;SDS011;8614;48.522;9.206;2023-04-19T04:21:21;21.10;;;19.20;;
16994;SDS011;8614;48.522;9.206;2023-04-19T04:23:48;24.20;;;22.00;;
16994;SDS011;8614;48.522;9.206;2023-04-19T04:26:25;22.10;;;20.10;;
16994;SDS011;8614;48.522;9.206;2023-04-19T04:29:08;20.70;;;18.90;;
16994;SDS011;8614;48.522;9.206;2023-04-19T04:31:38;22.10;;;20.13;;
16994;SDS011;8614;48.522;9.206;2023-04-19T04:34:04;23.27;;;20.97;;
16994;SDS011;8614;48.522;9.206;2023-04-19T04:36:35;21.00;;;19.30;;
16994;SDS011;8614;48.522;9.206;2023-04-19T04:39:02;22.10;;;20.13;;
16994;SDS011;8614;48.522;9.206;2023-04-19T04:41:30;24.40;;;22.27;;
16994;SDS011;8614;48.522;9.206;2023-04-19T04:43:57;25.33;;;22.70;;
16994;SDS011;8614;48.522;9.206;2023-04-19T04:46:24;22.23;;;20.13;;
16994;SDS011;8614;48.522;9.206;2023-04-19T04:48:52;25.07;;;22.77;;
16994;SDS011;8614;48.522;9.206;2023-04-19T04:51:19;25.23;;;23.03;;
16994;SDS011;8614;48.522;9.206;2023-04-19T04:53:48;29.40;;;26.90;;
16994;SDS011;8614;48.522;9.206;2023-04-19T04:56:15;23.83;;;21.60;;
16994;SDS011;8614;48.522;9.206;2023-04-19T04:58:44;23.73;;;21.43;;
16994;SDS011;8614;48.522;9.206;2023-04-19T05:01:16;23.47;;;21.13;;
16994;SDS011;8614;48.522;9.206;2023-04-19T05:03:44;23.63;;;21.53;;
16994;SDS011;8614;48.522;9.206;2023-04-19T05:06:15;23.97;;;21.77;;
16994;SDS011;8614;48.522;9.206;2023-04-19T05:08:42;21.80;;;19.90;;
16994;SDS011;8614;48.522;9.206;2023-04-19T05:11:32;24.57;;;22.10;;
16994;SDS011;8614;48.522;9.206;2023-04-19T05:14:01;24.83;;;22.63;;
16994;SDS011;8614;48.522;9.206;2023-04-19T05:16:30;23.90;;;21.50;;
16994;SDS011;8614;48.522;9.206;2023-04-19T05:18:58;25.27;;;22.93;;
16994;SDS011;8614;48.522;9.206;2023-04-19T05:21:27;25.87;;;23.57;;
16994;SDS011;8614;48.522;9.206;2023-04-19T05:23:55;23.07;;;20.80;;
16994;SDS011;8614;48.522;9.206;2023-04-19T05:26:22;23.97;;;21.87;;
16994;SDS011;8614;48.522;9.206;2023-04-19T05:28:49;23.23;;;21.07;;
16994;SDS011;8614;48.522;9.206;2023-04-19T05:31:22;21.83;;;19.70;;
16994;SDS011;8614;48.522;9.206;2023-04-19T05:34:08;20.40;;;18.40;;
16994;SDS011;8614;48.522;9.206;2023-04-19T05:36:35;20.70;;;18.90;;
16994;SDS011;8614;48.522;9.206;2023-04-19T05:39:02;23.10;;;20.90;;
16994;SDS011;8614;48.522;9.206;2023-04-19T05:41:29;22.03;;;19.93;;
16994;SDS011;8614;48.522;9.206;2023-04-19T05:43:56;22.57;;;20.60;;
16994;SDS011;8614;48.522;9.206;2023-04-19T05:46:25;22.07;;;19.97;;
16994;SDS011;8614;48.522;9.206;2023-04-19T05:48:53;20.30;;;18.57;;
16994;SDS011;8614;48.522;9.206;2023-04-19T05:51:23;20.40;;;18.50;;
16994;SDS011;8614;48.522;9.206;2023-04-19T05:53:58;20.67;;;18.80;;
16994;SDS011;8614;48.522;9.206;2023-04-19T05:56:25;20.47;;;18.60;;
16994;SDS011;8614;48.522;9.206;2023-04-19T05:58:52;23.13;;;20.73;;
16994;SDS011;8614;48.522;9.206;2023-04-19T06:01:20;22.13;;;20.13;;
16994;SDS011;8614;48.522;9.206;2023-04-19T06:03:48;22.93;;;20.73;;
16994;SDS011;8614;48.522;9.206;2023-04-19T06:06:17;22.53;;;20.50;;
16994;SDS011;8614;48.522;9.206;2023-04-19T06:08:44;21.33;;;19.43;;
16994;SDS011;8614;48.522;9.206;2023-04-19T06:11:11;23.87;;;21.67;;
16994;SDS011;8614;48.522;9.206;2023-04-19T06:13:37;24.10;;;21.90;;
16994;SDS011;8614;48.522;9.206;2023-04-19T06:16:05;25.53;;;23.23;;
16994;SDS011;8614;48.522;9.206;2023-04-19T06:18:33;23.87;;;20.67;;
16994;SDS011;8614;48.522;9.206;2023-04-19T06:21:01;22.70;;;20.60;;
16994;SDS011;8614;48.522;9.206;2023-04-19T06:23:28;23.50;;;21.27;;
16994;SDS011;8614;48.522;9.206;2023-04-19T06:25:55;22.87;;;20.77;;
16994;SDS011;8614;48.522;9.206;2023-04-19T06:28:22;22.13;;;20.13;;
16994;SDS011;8614;48.522;9.206;2023-04-19T06:30:48;21.43;;;19.53;;
16994;SDS011;8614;48.522;9.206;2023-04-19T06:33:15;23.70;;;21.43;;
16994;SDS011;8614;48.522;9.206;2023-04-19T06:35:42;22.50;;;20.50;;
16994;SDS011;8614;48.522;9.206;2023-04-19T06:38:10;21.47;;;19.53;;
16994;SDS011;8614;48.522;9.206;2023-04-19T06:40:38;23.47;;;21.37;;
16994;SDS011;8614;48.522;9.206;2023-04-19T06:43:05;22.87;;;20.80;;
16994;SDS011;8614;48.522;9.206;2023-04-19T06:45:31;23.50;;;21.07;;
16994;SDS011;8614;48.522;9.206;2023-04-19T06:47:58;22.73;;;20.63;;
16994;SDS011;8614;48.522;9.206;2023-04-19T06:50:26;22.20;;;20.10;;
16994;SDS011;8614;48.522;9.206;2023-04-19T06:52:52;21.47;;;19.47;;
16994;SDS011;8614;48.522;9.206;2023-04-19T06:55:21;24.47;;;22.10;;
16994;SDS011;8614;48.522;9.206;2023-04-19T06:57:48;21.90;;;20.00;;
16994;SDS011;8614;48.522;9.206;2023-04-19T07:00:15;22.73;;;20.73;;
16994;SDS011;8614;48.522;9.206;2023-04-19T07:02:42;20.53;;;18.73;;
16994;SDS011;8614;48.522;9.206;2023-04-19T07:05:09;20.43;;;18.47;;
16994;SDS011;8614;48.522;9.206;2023-04-19T07:07:36;20.53;;;18.73;;
16994;SDS011;8614;48.522;9.206;2023-04-19T07:10:06;20.23;;;18.40;;
16994;SDS011;8614;48.522;9.206;2023-04-19T07:12:35;21.77;;;19.77;;
16994;SDS011;8614;48.522;9.206;2023-04-19T07:15:02;22.07;;;20.03;;
16994;SDS011;8614;48.522;9.206;2023-04-19T07:17:29;20.80;;;18.60;;
16994;SDS011;8614;48.522;9.206;2023-04-19T07:19:56;14.27;;;11.93;;
16994;SDS011;8614;48.522;9.206;2023-04-19T07:22:23;17.43;;;13.67;;
16994;SDS011;8614;48.522;9.206;2023-04-19T07:24:49;20.37;;;18.33;;
16994;SDS011;8614;48.522;9.206;2023-04-19T07:27:16;17.63;;;15.90;;
16994;SDS011;8614;48.522;9.206;2023-04-19T07:29:45;14.77;;;12.53;;
16994;SDS011;8614;48.522;9.206;2023-04-19T07:32:11;14.87;;;11.77;;
16994;SDS011;8614;48.522;9.206;2023-04-19T07:34:39;14.17;;;10.90;;
16994;SDS011;8614;48.522;9.206;2023-04-19T07:37:07;16.87;;;15.20;;
16994;SDS011;8614;48.522;9.206;2023-04-19T07:39:34;15.37;;;13.40;;
16994;SDS011;8614;48.522;9.206;2023-04-19T07:42:01;13.80;;;12.20;;
16994;SDS011;8614;48.522;9.206;2023-04-19T07:44:28;17.07;;;15.40;;
16994;SDS011;8614;48.522;9.206;2023-04-19T07:46:56;17.13;;;15.43;;
16994;SDS011;8614;48.522;9.206;2023-04-19T07:49:23;16.87;;;14.33;;
16994;SDS011;8614;48.522;9.206;2023-04-19T07:51:50;17.83;;;16.03;;
16994;SDS011;8614;48.522;9.206;2023-04-19T07:54:17;22.17;;;20.27;;
16994;SDS011;8614;48.522;9.206;2023-04-19T07:56:45;21.63;;;19.73;;
16994;SDS011;8614;48.522;9.206;2023-04-19T07:59:12;19.73;;;18.03;;
16994;SDS011;8614;48.522;9.206;2023-04-19T08:01:39;21.03;;;19.13;;
16994;SDS011;8614;48.522;9.206;2023-04-19T08:04:07;20.43;;;18.43;;
16994;SDS011;8614;48.522;9.206;2023-04-19T08:06:34;16.20;;;14.60;;
16994;SDS011;8614;48.522;9.206;2023-04-19T08:09:03;17.57;;;15.77;;
16994;SDS011;8614;48.522;9.206;2023-04-19T08:11:30;17.77;;;16.17;;
16994;SDS011;8614;48.522;9.206;2023-04-19T08:13:57;15.30;;;13.73;;
16994;SDS011;8614;48.522;9.206;2023-04-19T08:16:24;15.23;;;13.60;;
16994;SDS011;8614;48.522;9.206;2023-04-19T08:18:52;18.67;;;17.03;;
16994;SDS011;8614;48.522;9.206;2023-04-19T08:21:20;16.33;;;14.73;;
16994;SDS011;8614;48.522;9.206;2023-04-19T08:23:47;19.60;;;17.70;;
16994;SDS011;8614;48.522;9.206;2023-04-19T08:26:13;14.87;;;12.90;;
16994;SDS011;8614;48.522;9.206;2023-04-19T08:28:40;14.83;;;13.27;;
16994;SDS011;8614;48.522;9.206;2023-04-19T08:31:09;15.20;;;13.60;;
16994;SDS011;8614;48.522;9.206;2023-04-19T08:33:36;14.47;;;11.13;;
16994;SDS011;8614;48.522;9.206;2023-04-19T08:36:09;12.90;;;11.60;;
16994;SDS011;8614;48.522;9.206;2023-04-19T08:38:37;17.30;;;15.60;;
16994;SDS011;8614;48.522;9.206;2023-04-19T08:41:05;11.03;;;9.77;;
16994;SDS011;8614;48.522;9.206;2023-04-19T08:43:33;17.53;;;16.03;;
16994;SDS011;8614;48.522;9.206;2023-04-19T08:46:02;11.50;;;10.30;;
16994;SDS011;8614;48.522;9.206;2023-04-19T08:48:29;12.53;;;11.13;;
16994;SDS011;8614;48.522;9.206;2023-04-19T08:51:00;13.77;;;12.30;;
16994;SDS011;8614;48.522;9.206;2023-04-19T08:53:28;13.87;;;10.50;;
16994;SDS011;8614;48.522;9.206;2023-04-19T08:55:56;12.43;;;11.17;;
16994;SDS011;8614;48.522;9.206;2023-04-19T08:58:24;17.63;;;16.03;;
16994;SDS011;8614;48.522;9.206;2023-04-19T09:00:53;17.00;;;15.40;;
16994;SDS011;8614;48.522;9.206;2023-04-19T09:03:23;17.20;;;15.50;;
16994;SDS011;8614;48.522;9.206;2023-04-19T09:05:50;18.00;;;16.50;;
16994;SDS011;8614;48.522;9.206;2023-04-19T09:08:20;19.33;;;17.73;;
16994;SDS011;8614;48.522;9.206;2023-04-19T09:10:52;13.40;;;12.03;;
16994;SDS011;8614;48.522;9.206;2023-04-19T09:13:22;13.17;;;11.87;;
16994;SDS011;8614;48.522;9.206;2023-04-19T09:15:49;14.13;;;12.80;;
16994;SDS011;8614;48.522;9.206;2023-04-19T09:18:17;17.17;;;15.47;;
16994;SDS011;8614;48.522;9.206;2023-04-19T09:20:44;14.37;;;12.70;;
16994;SDS011;8614;48.522;9.206;2023-04-19T09:23:12;17.27;;;15.70;;
16994;SDS011;8614;48.522;9.206;2023-04-19T09:25:50;13.43;;;12.10;;
16994;SDS011;8614;48.522;9.206;2023-04-19T09:28:18;14.90;;;13.60;;
16994;SDS011;8614;48.522;9.206;2023-04-19T09:30:47;14.40;;;13.20;;
16994;SDS011;8614;48.522;9.206;2023-04-19T09:33:21;14.73;;;13.33;;
16994;SDS011;8614;48.522;9.206;2023-04-19T09:35:58;14.60;;;13.30;;
16994;SDS011;8614;48.522;9.206;2023-04-19T09:38:25;16.17;;;14.87;;
16994;SDS011;8614;48.522;9.206;2023-04-19T09:40:52;15.73;;;14.33;;
16994;SDS011;8614;48.522;9.206;2023-04-19T09:43:32;16.30;;;14.80;;
16994;SDS011;8614;48.522;9.206;2023-04-19T09:46:00;12.77;;;11.43;;
16994;SDS011;8614;48.522;9.206;2023-04-19T09:48:28;12.77;;;11.43;;
16994;SDS011;8614;48.522;9.206;2023-04-19T09:50:55;13.67;;;12.37;;
16994;SDS011;8614;48.522;9.206;2023-04-19T09:53:23;14.13;;;12.83;;
16994;SDS011;8614;48.522;9.206;2023-04-19T09:55:51;14.43;;;13.03;;
16994;SDS011;8614;48.522;9.206;2023-04-19T09:58:18;15.47;;;14.00;;
16994;SDS011;8614;48.522;9.206;2023-04-19T10:00:46;14.43;;;13.13;;
16994;SDS011;8614;48.522;9.206;2023-04-19T10:03:17;14.20;;;12.90;;
16994;SDS011;8614;48.522;9.206;2023-04-19T10:05:46;14.93;;;13.70;;
16994;SDS011;8614;48.522;9.206;2023-04-19T10:08:14;14.13;;;12.93;;
16994;SDS011;8614;48.522;9.206;2023-04-19T10:10:42;11.83;;;10.73;;
16994;SDS011;8614;48.522;9.206;2023-04-19T10:13:13;11.63;;;10.43;;
16994;SDS011;8614;48.522;9.206;2023-04-19T10:15:46;12.10;;;10.80;;
16994;SDS011;8614;48.522;9.206;2023-04-19T10:18:13;12.23;;;10.90;;
16994;SDS011;8614;48.522;9.206;2023-04-19T10:20:45;12.93;;;11.13;;
16994;SDS011;8614;48.522;9.206;2023-04-19T10:23:17;12.20;;;11.00;;
16994;SDS011;8614;48.522;9.206;2023-04-19T10:25:45;12.50;;;11.20;;
16994;SDS011;8614;48.522;9.206;2023-04-19T10:28:14;11.87;;;10.67;;
16994;SDS011;8614;48.522;9.206;2023-04-19T10:30:51;12.33;;;11.07;;
16994;SDS011;8614;48.522;9.206;2023-04-19T10:33:23;11.77;;;10.67;;
16994;SDS011;8614;48.522;9.206;2023-04-19T10:35:55;10.97;;;9.87;;
16994;SDS011;8614;48.522;9.206;2023-04-19T10:38:35;12.47;;;11.17;;
16994;SDS011;8614;48.522;9.206;2023-04-19T10:41:03;12.20;;;11.00;;
16994;SDS011;8614;48.522;9.206;2023-04-19T10:43:36;10.53;;;9.53;;
16994;SDS011;8614;48.522;9.206;2023-04-19T10:46:07;10.23;;;9.13;;
16994;SDS011;8614;48.522;9.206;2023-04-19T10:48:51;11.03;;;9.93;;
16994;SDS011;8614;48.522;9.206;2023-04-19T10:51:22;12.17;;;10.63;;
16994;SDS011;8614;48.522;9.206;2023-04-19T10:53:53;12.70;;;11.70;;
16994;SDS011;8614;48.522;9.206;2023-04-19T10:59:35;11.13;;;10.00;;
16994;SDS011;8614;48.522;9.206;2023-04-19T11:02:03;10.20;;;9.20;;
16994;SDS011;8614;48.522;9.206;2023-04-19T11:07:40;11.00;;;9.97;;
16994;SDS011;8614;48.522;9.206;2023-04-19T11:10:07;10.77;;;9.67;;
16994;SDS011;8614;48.522;9.206;2023-04-19T11:12:35;10.13;;;9.10;;
16994;SDS011;8614;48.522;9.206;2023-04-19T11:15:02;11.30;;;10.30;;
16994;SDS011;8614;48.522;9.206;2023-04-19T11:17:33;12.10;;;10.97;;
16994;SDS011;8614;48.522;9.206;2023-04-19T11:20:02;12.23;;;11.13;;
16994;SDS011;8614;48.522;9.206;2023-04-19T11:22:32;10.77;;;9.73;;
16994;SDS011;8614;48.522;9.206;2023-04-19T11:25:05;11.37;;;10.37;;
16994;SDS011;8614;48.522;9.206;2023-04-19T11:27:36;11.77;;;10.77;;
16994;SDS011;8614;48.522;9.206;2023-04-19T11:30:03;11.77;;;10.77;;
16994;SDS011;8614;48.522;9.206;2023-04-19T11:32:31;11.40;;;10.30;;
16994;SDS011;8614;48.522;9.206;2023-04-19T11:35:02;10.80;;;9.90;;
16994;SDS011;8614;48.522;9.206;2023-04-19T11:37:32;14.30;;;13.20;;
16994;SDS011;8614;48.522;9.206;2023-04-19T11:39:59;14.63;;;13.33;;
16994;SDS011;8614;48.522;9.206;2023-04-19T11:42:27;15.63;;;14.53;;
16994;SDS011;8614;48.522;9.206;2023-04-19T11:44:54;15.23;;;14.03;;
16994;SDS011;8614;48.522;9.206;2023-04-19T11:47:22;16.07;;;14.77;;
16994;SDS011;8614;48.522;9.206;2023-04-19T11:49:49;16.07;;;14.70;;
16994;SDS011;8614;48.522;9.206;2023-04-19T11:52:19;16.83;;;15.50;;
16994;SDS011;8614;48.522;9.206;2023-04-19T11:54:47;15.47;;;14.20;;
16994;SDS011;8614;48.522;9.206;2023-04-19T11:57:15;14.10;;;13.00;;
16994;SDS011;8614;48.522;9.206;2023-04-19T12:00:01;12.50;;;11.40;;
16994;SDS011;8614;48.522;9.206;2023-04-19T12:02:38;14.00;;;12.80;;
16994;SDS011;8614;48.522;9.206;2023-04-19T12:05:09;13.63;;;12.40;;
16994;SDS011;8614;48.522;9.206;2023-04-19T12:10:25;14.70;;;13.53;;
16994;SDS011;8614;48.522;9.206;2023-04-19T12:12:53;16.07;;;14.77;;
16994;SDS011;8614;48.522;9.206;2023-04-19T12:15:20;15.20;;;14.10;;
16994;SDS011;8614;48.522;9.206;2023-04-19T12:17:57;13.27;;;11.87;;
16994;SDS011;8614;48.522;9.206;2023-04-19T12:20:29;11.40;;;10.27;;
16994;SDS011;8614;48.522;9.206;2023-04-19T12:22:57;10.87;;;9.87;;
16994;SDS011;8614;48.522;9.206;2023-04-19T12:25:26;11.10;;;10.07;;
16994;SDS011;8614;48.522;9.206;2023-04-19T12:27:55;11.70;;;10.47;;
16994;SDS011;8614;48.522;9.206;2023-04-19T12:30:22;10.17;;;9.13;;
16994;SDS011;8614;48.522;9.206;2023-04-19T12:32:50;15.70;;;14.40;;
16994;SDS011;8614;48.522;9.206;2023-04-19T12:35:19;10.37;;;9.43;;
16994;SDS011;8614;48.522;9.206;2023-04-19T12:37:47;15.73;;;14.13;;
16994;SDS011;8614;48.522;9.206;2023-04-19T12:40:13;10.23;;;9.00;;
16994;SDS011;8614;48.522;9.206;2023-04-19T12:42:40;9.37;;;8.33;;
16994;SDS011;8614;48.522;9.206;2023-04-19T12:45:09;12.33;;;11.10;;
16994;SDS011;8614;48.522;9.206;2023-04-19T12:47:37;14.93;;;13.53;;
16994;SDS011;8614;48.522;9.206;2023-04-19T12:50:05;17.37;;;15.77;;
16994;SDS011;8614;48.522;9.206;2023-04-19T12:52:32;16.40;;;15.00;;
16994;SDS011;8614;48.522;9.206;2023-04-19T12:54:59;16.40;;;14.80;;
16994;SDS011;8614;48.522;9.206;2023-04-19T12:57:26;16.47;;;15.07;;
16994;SDS011;8614;48.522;9.206;2023-04-19T12:59:53;16.23;;;14.93;;
16994;SDS011;8614;48.522;9.206;2023-04-19T13:02:21;19.23;;;16.63;;
16994;SDS011;8614;48.522;9.206;2023-04-19T13:04:48;18.73;;;16.83;;
16994;SDS011;8614;48.522;9.206;2023-04-19T13:07:15;18.83;;;16.83;;
16994;SDS011;8614;48.522;9.206;2023-04-19T13:09:42;19.83;;;17.83;;
16994;SDS011;8614;48.522;9.206;2023-04-19T13:12:09;17.27;;;15.83;;
16994;SDS011;8614;48.522;9.206;2023-04-19T13:14:36;17.90;;;16.30;;
16994;SDS011;8614;48.522;9.206;2023-04-19T13:17:03;17.80;;;16.20;;
16994;SDS011;8614;48.522;9.206;2023-04-19T13:19:31;16.97;;;15.53;;
16994;SDS011;8614;48.522;9.206;2023-04-19T13:21:58;17.63;;;15.97;;
16994;SDS011;8614;48.522;9.206;2023-04-19T13:24:25;19.33;;;17.57;;
16994;SDS011;8614;48.522;9.206;2023-04-19T13:26:51;18.37;;;16.67;;
16994;SDS011;8614;48.522;9.206;2023-04-19T13:29:18;18.73;;;16.93;;
16994;SDS011;8614;48.522;9.206;2023-04-19T13:31:45;18.90;;;17.10;;
16994;SDS011;8614;48.522;9.206;2023-04-19T13:34:13;20.47;;;18.47;;
16994;SDS011;8614;48.522;9.206;2023-04-19T13:36:41;21.20;;;19.20;;
16994;SDS011;8614;48.522;9.206;2023-04-19T13:39:08;23.40;;;20.93;;
16994;SDS011;8614;48.522;9.206;2023-04-19T13:41:35;20.27;;;18.50;;
16994;SDS011;8614;48.522;9.206;2023-04-19T13:44:01;20.93;;;19.13;;
16994;SDS011;8614;48.522;9.206;2023-04-19T13:46:28;21.73;;;19.73;;
16994;SDS011;8614;48.522;9.206;2023-04-19T13:48:55;20.23;;;18.43;;
16994;SDS011;8614;48.522;9.206;2023-04-19T13:51:22;23.90;;;21.70;;
16994;SDS011;8614;48.522;9.206;2023-04-19T13:53:50;23.60;;;21.13;;
16994;SDS011;8614;48.522;9.206;2023-04-19T13:56:18;22.47;;;20.37;;
16994;SDS011;8614;48.522;9.206;2023-04-19T13:58:45;23.70;;;21.43;;
16994;SDS011;8614;48.522;9.206;2023-04-19T14:01:11;23.80;;;21.27;;
16994;SDS011;8614;48.522;9.206;2023-04-19T14:03:38;25.07;;;22.67;;
16994;SDS011;8614;48.522;9.206;2023-04-19T14:06:05;26.00;;;23.47;;
16994;SDS011;8614;48.522;9.206;2023-04-19T14:08:32;24.70;;;22.40;;
16994;SDS011;8614;48.522;9.206;2023-04-19T14:11:00;24.93;;;22.50;;
16994;SDS011;8614;48.522;9.206;2023-04-19T14:13:27;24.93;;;22.33;;
16994;SDS011;8614;48.522;9.206;2023-04-19T14:15:54;28.10;;;25.40;;
16994;SDS011;8614;48.522;9.206;2023-04-19T14:18:21;24.40;;;22.10;;
16994;SDS011;8614;48.522;9.206;2023-04-19T14:20:48;28.30;;;25.70;;
16994;SDS011;8614;48.522;9.206;2023-04-19T14:23:14;26.83;;;23.87;;
16994;SDS011;8614;48.522;9.206;2023-04-19T14:25:41;24.20;;;21.87;;
16994;SDS011;8614;48.522;9.206;2023-04-19T14:28:09;26.30;;;23.83;;
16994;SDS011;8614;48.522;9.206;2023-04-19T14:30:37;27.50;;;24.80;;
16994;SDS011;8614;48.522;9.206;2023-04-19T14:33:04;27.83;;;25.17;;
16994;SDS011;8614;48.522;9.206;2023-04-19T14:35:31;26.67;;;24.03;;
16994;SDS011;8614;48.522;9.206;2023-04-19T14:37:57;25.57;;;23.10;;
16994;SDS011;8614;48.522;9.206;2023-04-19T14:40:24;24.83;;;22.53;;
16994;SDS011;8614;48.522;9.206;2023-04-19T14:42:51;24.77;;;22.57;;
16994;SDS011;8614;48.522;9.206;2023-04-19T14:45:19;24.73;;;22.37;;
16994;SDS011;8614;48.522;9.206;2023-04-19T14:47:46;24.20;;;22.00;;
16994;SDS011;8614;48.522;9.206;2023-04-19T14:50:13;24.57;;;22.20;;
16994;SDS011;8614;48.522;9.206;2023-04-19T14:52:40;24.57;;;22.17;;
16994;SDS011;8614;48.522;9.206;2023-04-19T14:55:07;22.90;;;20.83;;